createdAt,value
2019-04-07T00:00:11.825Z,101110.63
2019-04-07T00:02:42.819Z,101111.13
2019-04-07T00:05:14.820Z,101108.23
2019-04-07T00:07:45.975Z,101101.35
2019-04-07T00:10:17.010Z,101107.11
2019-04-07T00:12:49.863Z,101099.75
2019-04-07T00:15:20.923Z,101096.34
2019-04-07T00:17:51.850Z,101092.91
2019-04-07T00:20:23.946Z,101094.77
2019-04-07T00:22:57.348Z,101091.41
2019-04-07T00:25:28.762Z,101088.89
2019-04-07T00:27:59.774Z,101082.84
2019-04-07T00:30:30.835Z,101082.11
2019-04-07T00:33:01.988Z,101084.79
2019-04-07T00:35:33.620Z,101077.09
2019-04-07T00:38:04.870Z,101076.77
2019-04-07T00:40:37.084Z,101078.58
2019-04-07T00:43:08.772Z,101076.47
2019-04-07T00:45:40.517Z,101073.94
2019-04-07T00:48:12.287Z,101070.59
2019-04-07T00:50:43.704Z,101073.74
2019-04-07T00:53:14.721Z,101072.14
2019-04-07T00:55:45.721Z,101068.72
2019-04-07T00:58:16.789Z,101064.85
2019-04-07T01:00:50.408Z,101061.45
2019-04-07T01:03:21.462Z,101055.52
2019-04-07T01:05:52.544Z,101054.65
2019-04-07T01:08:23.503Z,101055.22
2019-04-07T01:10:54.562Z,101053.19
2019-04-07T01:13:26.223Z,101053.19
2019-04-07T01:15:57.421Z,101051.08
2019-04-07T01:18:31.752Z,101049.06
2019-04-07T01:21:03.862Z,101037.37
2019-04-07T01:23:34.878Z,101037.37
2019-04-07T01:26:06.410Z,101039.69
2019-04-07T01:28:37.569Z,101039.69
2019-04-07T01:31:08.799Z,101044.05
2019-04-07T01:33:40.092Z,101045.00
2019-04-07T01:36:11.293Z,101041.97
2019-04-07T01:38:42.270Z,101045.50
2019-04-07T01:41:15.273Z,101050.29
2019-04-07T01:44:14.688Z,101032.59
2019-04-07T01:46:56.830Z,101032.59
2019-04-07T01:49:35.960Z,101050.09
2019-04-07T01:52:08.727Z,101050.60
2019-04-07T01:54:47.262Z,101043.34
2019-04-07T01:57:20.178Z,101040.84
2019-04-07T01:59:58.509Z,101043.03
2019-04-07T02:02:45.509Z,101037.86
2019-04-07T02:05:21.116Z,101030.24
2019-04-07T02:07:56.780Z,101035.39
2019-04-07T02:10:29.371Z,101035.39
2019-04-07T02:13:02.154Z,101032.44
2019-04-07T02:15:41.457Z,101032.05
2019-04-07T02:18:14.801Z,101032.05
2019-04-07T02:21:05.415Z,101029.96
2019-04-07T02:23:53.625Z,101031.33
2019-04-07T02:26:29.014Z,101027.48
2019-04-07T02:29:18.071Z,101023.17
2019-04-07T02:31:54.235Z,101022.75
2019-04-07T02:34:33.854Z,101018.91
2019-04-07T02:37:12.781Z,101018.11
2019-04-07T02:39:48.822Z,101019.47
2019-04-07T02:42:21.487Z,101027.56
2019-04-07T02:45:10.996Z,101029.38
2019-04-07T02:47:59.660Z,101028.98
2019-04-07T02:50:35.243Z,101025.14
2019-04-07T02:53:24.577Z,101015.69
2019-04-07T02:56:13.508Z,101020.91
2019-04-07T02:58:49.767Z,101024.42
2019-04-07T03:01:26.349Z,101015.04
2019-04-07T03:04:00.217Z,101015.04
2019-04-07T03:06:52.534Z,101019.02
2019-04-07T03:09:40.459Z,101012.12
2019-04-07T03:12:18.971Z,101007.97
2019-04-07T03:15:00.730Z,101015.95
2019-04-07T03:17:49.826Z,101015.94
2019-04-07T03:20:39.232Z,101012.87
2019-04-07T03:23:27.265Z,101014.58
2019-04-07T03:26:16.346Z,101018.05
2019-04-07T03:28:52.609Z,101016.30
2019-04-07T03:31:27.380Z,101018.50
2019-04-07T03:34:09.756Z,101019.41
2019-04-07T03:37:12.691Z,101018.12
2019-04-07T03:39:22.294Z,101009.92
2019-04-07T03:41:59.035Z,101011.34
2019-04-07T03:44:34.790Z,101005.27
2019-04-07T03:47:10.730Z,101000.23
2019-04-07T03:49:49.669Z,101009.69
2019-04-07T03:52:25.361Z,101006.25
2019-04-07T03:54:58.880Z,101005.45
2019-04-07T03:57:32.438Z,101005.52
2019-04-07T04:00:26.155Z,101002.11
2019-04-07T04:02:59.237Z,101000.49
2019-04-07T04:05:39.444Z,101002.30
2019-04-07T04:08:18.370Z,101006.21
2019-04-07T04:10:53.890Z,101001.43
2019-04-07T04:13:30.579Z,100999.68
2019-04-07T04:16:03.438Z,100997.45
2019-04-07T04:18:35.235Z,100993.54
2019-04-07T04:21:07.023Z,100995.71
2019-04-07T04:23:41.545Z,100996.89
2019-04-07T04:26:10.951Z,100996.89
2019-04-07T04:28:42.959Z,100996.00
2019-04-07T04:31:15.483Z,100995.45
2019-04-07T04:33:46.622Z,100993.52
2019-04-07T04:36:17.839Z,101004.20
2019-04-07T04:38:48.847Z,100986.92
2019-04-07T04:41:20.913Z,100999.58
2019-04-07T04:43:52.069Z,101010.48
2019-04-07T04:46:26.627Z,101010.48
2019-04-07T04:48:58.752Z,101002.46
2019-04-07T04:51:36.981Z,101002.46
2019-04-07T04:54:07.095Z,100996.41
2019-04-07T04:56:39.516Z,100997.55
2019-04-07T04:59:11.392Z,100993.55
2019-04-07T05:01:45.130Z,100993.55
2019-04-07T05:04:16.202Z,100995.82
2019-04-07T05:06:49.094Z,101004.62
2019-04-07T05:09:21.051Z,100999.47
2019-04-07T05:11:52.825Z,100998.75
2019-04-07T05:14:24.232Z,100989.53
2019-04-07T05:16:56.477Z,100998.64
2019-04-07T05:19:28.238Z,100997.17
2019-04-07T05:21:59.864Z,100997.17
2019-04-07T05:24:31.276Z,100993.23
2019-04-07T05:27:03.113Z,100996.95
2019-04-07T05:29:34.543Z,100989.45
2019-04-07T05:32:05.770Z,100994.27
2019-04-07T05:34:36.811Z,100994.40
2019-04-07T05:37:08.716Z,100990.72
2019-04-07T05:39:40.384Z,100992.41
2019-04-07T05:42:12.429Z,100996.42
2019-04-07T05:44:43.548Z,100991.95
2019-04-07T05:47:15.593Z,100990.59
2019-04-07T05:49:46.655Z,100981.04
2019-04-07T05:52:18.101Z,100982.27
2019-04-07T05:54:50.258Z,100982.66
2019-04-07T05:57:22.250Z,100988.52
2019-04-07T05:59:53.740Z,100985.45
2019-04-07T06:02:27.327Z,100981.65
2019-04-07T06:05:00.370Z,100983.25
2019-04-07T06:07:51.477Z,100986.48
2019-04-07T06:10:37.069Z,100991.53
2019-04-07T06:13:12.940Z,100992.33
2019-04-07T06:15:43.227Z,100990.09
2019-04-07T06:18:15.323Z,100995.84
2019-04-07T06:20:46.694Z,100992.58
2019-04-07T06:23:22.102Z,100990.00
2019-04-07T06:25:53.883Z,100989.22
2019-04-07T06:28:26.614Z,100991.91
2019-04-07T06:31:00.246Z,100985.03
2019-04-07T06:33:30.775Z,100986.70
2019-04-07T06:36:01.938Z,100986.91
2019-04-07T06:38:34.872Z,100984.69
2019-04-07T06:41:06.169Z,100992.84
2019-04-07T06:43:39.829Z,100994.22
2019-04-07T06:46:14.844Z,100999.69
2019-04-07T06:49:08.912Z,100992.68
2019-04-07T06:51:43.679Z,100998.40
2019-04-07T06:54:33.001Z,101000.72
2019-04-07T06:57:09.429Z,100999.23
2019-04-07T06:59:45.700Z,100992.54
2019-04-07T07:02:16.505Z,100994.22
2019-04-07T07:04:57.177Z,100997.94
2019-04-07T07:07:47.777Z,100993.45
2019-04-07T07:10:26.867Z,101001.03
2019-04-07T07:12:53.549Z,100997.85
2019-04-07T07:15:26.779Z,100998.50
2019-04-07T07:18:02.550Z,100988.04
2019-04-07T07:20:47.371Z,100992.93
2019-04-07T07:23:20.038Z,100996.36
2019-04-07T07:25:51.901Z,100990.41
2019-04-07T07:28:23.689Z,100996.45
2019-04-07T07:30:55.626Z,100997.69
2019-04-07T07:33:26.984Z,100998.41
2019-04-07T07:35:58.320Z,100995.05
2019-04-07T07:38:32.145Z,100997.88
2019-04-07T07:41:03.619Z,100996.50
2019-04-07T07:43:34.974Z,100999.37
2019-04-07T07:46:06.809Z,100998.41
2019-04-07T07:48:37.925Z,100996.23
2019-04-07T07:51:12.866Z,100991.41
2019-04-07T07:53:42.698Z,100996.06
2019-04-07T07:56:14.383Z,101001.18
2019-04-07T07:58:46.084Z,101007.61
2019-04-07T08:01:17.915Z,101012.31
2019-04-07T08:03:51.715Z,101009.05
2019-04-07T08:06:22.533Z,101017.98
2019-04-07T08:08:53.729Z,101017.16
2019-04-07T08:11:25.676Z,101013.56
2019-04-07T08:13:58.130Z,101022.10
2019-04-07T08:16:31.076Z,101018.14
2019-04-07T08:19:02.802Z,101016.84
2019-04-07T08:21:34.811Z,101020.45
2019-04-07T08:24:05.887Z,101031.18
2019-04-07T08:26:36.897Z,101017.47
2019-04-07T08:29:08.758Z,101018.39
2019-04-07T08:31:39.913Z,101015.73
2019-04-07T08:34:11.033Z,101005.38
2019-04-07T08:36:44.479Z,101008.44
2019-04-07T08:39:22.984Z,101007.63
2019-04-07T08:41:48.439Z,101002.56
2019-04-07T08:44:19.455Z,101007.19
2019-04-07T08:46:50.833Z,101002.47
2019-04-07T08:49:24.160Z,101002.58
2019-04-07T08:51:56.097Z,100997.37
2019-04-07T08:54:27.637Z,100998.47
2019-04-07T08:56:59.182Z,100994.44
2019-04-07T08:59:30.342Z,100989.25
2019-04-07T09:02:01.961Z,100991.29
2019-04-07T09:04:32.984Z,100991.86
2019-04-07T09:07:05.202Z,100994.67
2019-04-07T09:09:40.381Z,100991.56
2019-04-07T09:12:10.375Z,100988.79
2019-04-07T09:14:41.948Z,100987.94
2019-04-07T09:17:14.912Z,100988.52
2019-04-07T09:19:47.698Z,100991.80
2019-04-07T09:22:29.718Z,100985.52
2019-04-07T09:25:06.266Z,100979.11
2019-04-07T09:27:46.039Z,100978.16
2019-04-07T09:30:30.839Z,100978.86
2019-04-07T09:33:03.449Z,100976.39
2019-04-07T09:35:48.672Z,100983.66
2019-04-07T09:38:24.963Z,100981.27
2019-04-07T09:40:57.227Z,100980.66
2019-04-07T09:43:33.467Z,100977.75
2019-04-07T09:46:09.333Z,100976.44
2019-04-07T09:48:56.670Z,100978.23
2019-04-07T09:51:46.218Z,100976.89
2019-04-07T09:54:37.871Z,100970.24
2019-04-07T09:57:16.864Z,100972.22
2019-04-07T09:59:52.491Z,100977.77
2019-04-07T10:02:33.577Z,100970.50
2019-04-07T10:05:21.576Z,100973.13
2019-04-07T10:08:07.160Z,100967.69
2019-04-07T10:10:56.047Z,100969.06
2019-04-07T10:13:31.782Z,100962.28
2019-04-07T10:16:10.502Z,100969.17
2019-04-07T10:18:42.929Z,100964.34
2019-04-07T10:21:19.622Z,100959.13
2019-04-07T10:24:08.780Z,100962.89
2019-04-07T10:26:57.688Z,100958.66
2019-04-07T10:29:34.051Z,100960.57
2019-04-07T10:32:15.782Z,100960.58
2019-04-07T10:35:01.050Z,100952.84
2019-04-07T10:37:34.427Z,100952.59
2019-04-07T10:40:25.467Z,100951.14
2019-04-07T10:43:00.943Z,100959.61
2019-04-07T10:45:45.920Z,100950.05
2019-04-07T10:48:24.289Z,100954.91
2019-04-07T10:51:07.915Z,100948.13
2019-04-07T10:53:51.456Z,100957.91
2019-04-07T10:56:30.830Z,100951.86
2019-04-07T10:59:05.531Z,100955.61
2019-04-07T11:01:44.481Z,100958.16
2019-04-07T11:04:19.765Z,100953.67
2019-04-07T11:06:52.387Z,100955.47
2019-04-07T11:09:28.381Z,100956.64
2019-04-07T11:12:16.185Z,100955.06
2019-04-07T11:15:07.143Z,100952.61
2019-04-07T11:17:39.659Z,100954.77
2019-04-07T11:20:13.235Z,100952.25
2019-04-07T11:23:04.407Z,100944.14
2019-04-07T11:25:41.216Z,100952.61
2019-04-07T11:28:29.166Z,100957.64
2019-04-07T11:31:05.676Z,100960.78
2019-04-07T11:33:50.504Z,100945.55
2019-04-07T11:36:38.573Z,100956.19
2019-04-07T11:39:14.060Z,100953.91
2019-04-07T11:41:55.789Z,100949.72
2019-04-07T11:44:31.277Z,100952.03
2019-04-07T11:47:06.883Z,100952.80
2019-04-07T11:49:58.194Z,100959.51
2019-04-07T11:52:31.009Z,100962.61
2019-04-07T11:55:03.575Z,100952.13
2019-04-07T11:57:36.158Z,100947.48
2019-04-07T12:00:26.967Z,100954.86
2019-04-07T12:03:03.968Z,100948.87
2019-04-07T12:05:52.576Z,100948.08
2019-04-07T12:08:35.081Z,100947.98
2019-04-07T12:11:14.867Z,100952.83
2019-04-07T12:14:00.847Z,100950.04
2019-04-07T12:16:38.016Z,100946.68
2019-04-07T12:19:14.453Z,100952.10
2019-04-07T12:21:53.232Z,100943.90
2019-04-07T12:24:42.217Z,100939.09
2019-04-07T12:27:21.676Z,100940.27
2019-04-07T12:29:55.040Z,100941.27
2019-04-07T12:32:27.600Z,100936.94
2019-04-07T12:35:04.230Z,100940.16
2019-04-07T12:37:48.909Z,100934.02
2019-04-07T12:40:22.899Z,100929.67
2019-04-07T12:42:59.240Z,100935.36
2019-04-07T12:45:31.971Z,100936.17
2019-04-07T12:48:06.305Z,100932.54
2019-04-07T12:50:39.784Z,100933.19
2019-04-07T12:53:25.149Z,100933.20
2019-04-07T12:56:13.395Z,100928.33
2019-04-07T12:59:02.279Z,100927.24
2019-04-07T13:01:34.863Z,100926.75
2019-04-07T13:04:26.444Z,100933.56
2019-04-07T13:07:08.941Z,100933.20
2019-04-07T13:10:00.295Z,100927.86
2019-04-07T13:12:30.949Z,100931.98
2019-04-07T13:15:08.541Z,100927.24
2019-04-07T13:17:43.496Z,100926.03
2019-04-07T13:20:32.174Z,100932.94
2019-04-07T13:23:23.830Z,100932.44
2019-04-07T13:26:03.386Z,100934.63
2019-04-07T13:28:39.080Z,100932.31
2019-04-07T13:31:27.585Z,100927.73
2019-04-07T13:34:01.936Z,100937.04
2019-04-07T13:36:53.296Z,100933.29
2019-04-07T13:39:45.228Z,100930.86
2019-04-07T13:42:23.042Z,100930.74
2019-04-07T13:45:11.835Z,100940.05
2019-04-07T13:47:57.731Z,100936.54
2019-04-07T13:50:46.917Z,100936.38
2019-04-07T13:53:36.713Z,100938.09
2019-04-07T13:56:17.618Z,100941.71
2019-04-07T13:58:53.365Z,100945.67
2019-04-07T14:01:26.769Z,100938.16
2019-04-07T14:04:00.093Z,100946.43
2019-04-07T14:06:36.209Z,100949.78
2019-04-07T14:09:21.162Z,100947.30
2019-04-07T14:12:10.479Z,100951.28
2019-04-07T14:14:57.942Z,100949.91
2019-04-07T14:17:30.850Z,100947.46
2019-04-07T14:20:16.129Z,100948.28
2019-04-07T14:22:48.774Z,100947.28
2019-04-07T14:25:41.872Z,100944.16
2019-04-07T14:28:14.361Z,100949.82
2019-04-07T14:30:53.335Z,100950.58
2019-04-07T14:33:30.710Z,100949.25
2019-04-07T14:36:07.325Z,100949.69
2019-04-07T14:38:56.324Z,100944.80
2019-04-07T14:41:43.967Z,100947.25
2019-04-07T14:44:16.646Z,100948.66
2019-04-07T14:47:04.103Z,100946.59
2019-04-07T14:49:39.408Z,100954.73
2019-04-07T14:52:11.963Z,100949.42
2019-04-07T14:55:01.449Z,100951.08
2019-04-07T14:57:41.530Z,100950.49
2019-04-07T15:00:26.948Z,100950.64
2019-04-07T15:02:57.909Z,100954.94
2019-04-07T15:05:34.135Z,100948.84
2019-04-07T15:08:16.308Z,100948.13
2019-04-07T15:10:50.094Z,100945.26
2019-04-07T15:13:25.765Z,100942.28
2019-04-07T15:16:00.587Z,100945.19
2019-04-07T15:18:32.026Z,100947.25
2019-04-07T15:21:04.625Z,100943.42
2019-04-07T15:23:35.700Z,100947.41
2019-04-07T15:26:06.771Z,100949.26
2019-04-07T15:28:38.446Z,100944.72
2019-04-07T15:31:10.562Z,100947.84
2019-04-07T15:33:42.384Z,100945.93
2019-04-07T15:36:17.378Z,100954.98
2019-04-07T15:38:46.410Z,100955.37
2019-04-07T15:41:19.053Z,100958.23
2019-04-07T15:43:50.218Z,100961.27
2019-04-07T15:46:22.514Z,100957.49
2019-04-07T15:48:55.736Z,100957.81
2019-04-07T15:51:26.408Z,100966.43
2019-04-07T15:53:57.422Z,100966.25
2019-04-07T15:56:28.462Z,100963.65
2019-04-07T15:59:01.994Z,100970.99
2019-04-07T16:01:33.738Z,100969.01
2019-04-07T16:04:14.741Z,100972.05
2019-04-07T16:06:48.130Z,100977.56
2019-04-07T16:09:33.271Z,100981.39
2019-04-07T16:12:14.530Z,100981.27
2019-04-07T16:14:48.039Z,100978.94
2019-04-07T16:17:21.106Z,100984.83
2019-04-07T16:19:54.441Z,100984.17
2019-04-07T16:22:25.690Z,100989.05
2019-04-07T16:24:57.286Z,100983.16
2019-04-07T16:27:28.333Z,100989.05
2019-04-07T16:29:59.233Z,100989.75
2019-04-07T16:32:31.011Z,100990.06
2019-04-07T16:35:02.045Z,100989.72
2019-04-07T16:37:33.591Z,100995.44
2019-04-07T16:40:10.416Z,101000.75
2019-04-07T16:42:39.341Z,100997.74
2019-04-07T16:45:13.750Z,100996.56
2019-04-07T16:47:44.018Z,100997.17
2019-04-07T16:50:18.110Z,101000.02
2019-04-07T16:52:48.418Z,101005.81
2019-04-07T16:55:34.880Z,101001.83
2019-04-07T16:58:06.692Z,101001.66
2019-04-07T17:00:38.399Z,101010.56
2019-04-07T17:03:10.045Z,101006.97
2019-04-07T17:05:41.193Z,101010.39
2019-04-07T17:08:12.849Z,101012.70
2019-04-07T17:10:43.971Z,101010.60
2019-04-07T17:13:20.539Z,101018.02
2019-04-07T17:15:48.065Z,101018.38
2019-04-07T17:18:41.105Z,101013.20
2019-04-07T17:21:16.551Z,101020.47
2019-04-07T17:23:53.165Z,101017.53
2019-04-07T17:26:23.533Z,101017.06
2019-04-07T17:28:56.714Z,101024.83
2019-04-07T17:31:28.078Z,101023.50
2019-04-07T17:34:03.950Z,101023.32
2019-04-07T17:36:34.345Z,101025.46
2019-04-07T17:39:22.808Z,101024.98
2019-04-07T17:41:55.303Z,101025.73
2019-04-07T17:44:28.624Z,101029.33
2019-04-07T17:47:13.711Z,101028.14
2019-04-07T17:50:05.568Z,101033.68
2019-04-07T17:52:41.662Z,101034.09
2019-04-07T17:55:18.736Z,101033.60
2019-04-07T17:57:57.588Z,101026.01
2019-04-07T18:00:36.307Z,101030.93
2019-04-07T18:03:11.954Z,101034.84
2019-04-07T18:05:46.099Z,101031.75
2019-04-07T18:08:28.318Z,101042.98
2019-04-07T18:11:01.064Z,101041.77
2019-04-07T18:13:45.025Z,101045.20
2019-04-07T18:16:15.063Z,101049.66
2019-04-07T18:18:47.681Z,101051.53
2019-04-07T18:21:21.134Z,101052.61
2019-04-07T18:24:01.376Z,101051.84
2019-04-07T18:26:40.484Z,101051.63
2019-04-07T18:29:14.917Z,101055.19
2019-04-07T18:31:47.535Z,101058.56
2019-04-07T18:34:27.465Z,101064.38
2019-04-07T18:37:18.760Z,101067.17
2019-04-07T18:40:03.399Z,101063.77
2019-04-07T18:42:54.368Z,101063.45
2019-04-07T18:45:32.753Z,101067.11
2019-04-07T18:48:22.755Z,101066.48
2019-04-07T18:51:13.252Z,101072.46
2019-04-07T18:54:04.170Z,101071.03
2019-04-07T18:56:41.682Z,101077.18
2019-04-07T18:59:23.486Z,101079.80
2019-04-07T19:02:14.872Z,101084.52
2019-04-07T19:04:51.224Z,101076.53
2019-04-07T19:07:27.282Z,101081.58
2019-04-07T19:10:08.698Z,101083.58
2019-04-07T19:12:41.028Z,101080.72
2019-04-07T19:15:13.978Z,101081.31
2019-04-07T19:18:09.882Z,101080.68
2019-04-07T19:21:14.045Z,101081.31
2019-04-07T19:24:10.684Z,101081.59
2019-04-07T19:26:54.644Z,101088.02
2019-04-07T19:29:46.219Z,101090.08
2019-04-07T19:32:20.859Z,101085.52
2019-04-07T19:35:11.511Z,101092.00
2019-04-07T19:37:50.667Z,101090.04
2019-04-07T19:40:32.369Z,101092.25
2019-04-07T19:43:18.062Z,101096.55
2019-04-07T19:45:55.145Z,101087.35
2019-04-07T19:48:31.088Z,101090.81
2019-04-07T19:51:03.843Z,101088.06
2019-04-07T19:53:55.706Z,101088.73
2019-04-07T19:56:35.144Z,101083.35
2019-04-07T19:59:14.574Z,101087.59
2019-04-07T20:01:50.362Z,101085.61
2019-04-07T20:04:32.733Z,101090.67
2019-04-07T20:07:17.948Z,101091.00
2019-04-07T20:10:03.101Z,101093.51
2019-04-07T20:12:47.932Z,101094.66
2019-04-07T20:15:43.140Z,101094.94
2019-04-07T20:18:34.110Z,101091.23
2019-04-07T20:21:08.506Z,101081.41
2019-04-07T20:23:43.994Z,101086.52
2019-04-07T20:26:22.092Z,101089.65
2019-04-07T20:29:06.541Z,101087.22
2019-04-07T20:31:40.813Z,101087.41
2019-04-07T20:34:19.319Z,101096.88
2019-04-07T20:37:08.147Z,101095.02
2019-04-07T20:39:41.254Z,101092.91
2019-04-07T20:42:31.089Z,101093.66
2019-04-07T20:45:14.216Z,101093.78
2019-04-07T20:47:44.657Z,101100.94
2019-04-07T20:50:20.188Z,101106.38
2019-04-07T20:53:10.083Z,101108.59
2019-04-07T20:55:45.266Z,101102.14
2019-04-07T20:58:48.725Z,101101.49
2019-04-07T21:01:44.559Z,101097.33
2019-04-07T21:07:35.424Z,101099.04
2019-04-07T21:10:11.188Z,101094.04
2019-04-07T21:12:45.505Z,101097.70
2019-04-07T21:15:30.379Z,101100.03
2019-04-07T21:18:15.978Z,101101.48
2019-04-07T21:21:11.937Z,101103.69
2019-04-07T21:23:59.568Z,101105.00
2019-04-07T21:26:48.362Z,101109.45
2019-04-07T21:29:28.104Z,101102.48
2019-04-07T21:32:18.983Z,101104.73
2019-04-07T21:35:08.683Z,101100.86
2019-04-07T21:37:51.909Z,101101.31
2019-04-07T21:40:39.563Z,101106.22
2019-04-07T21:43:20.083Z,101097.55
2019-04-07T21:45:54.448Z,101100.17
2019-04-07T21:48:44.232Z,101098.10
2019-04-07T21:51:33.395Z,101095.89
2019-04-07T21:54:07.722Z,101093.79
2019-04-07T21:56:46.123Z,101099.52
2019-04-07T21:59:37.441Z,101106.56
2019-04-07T22:02:19.453Z,101104.49
2019-04-07T22:05:18.094Z,101109.46
2019-04-07T22:07:53.822Z,101105.25
2019-04-07T22:10:25.682Z,101107.98
2019-04-07T22:13:00.702Z,101109.84
2019-04-07T22:15:42.124Z,101108.66
2019-04-07T22:18:06.290Z,101104.37
2019-04-07T22:20:34.972Z,101102.75
2019-04-07T22:23:09.304Z,101106.86
2019-04-07T22:25:52.341Z,101111.37
2019-04-07T22:28:27.650Z,101113.36
2019-04-07T22:30:57.275Z,101113.69
2019-04-07T22:33:30.901Z,101116.50
2019-04-07T22:36:01.771Z,101113.15
2019-04-07T22:38:33.639Z,101113.15
2019-04-07T22:41:06.701Z,101107.48
2019-04-07T22:43:37.499Z,101099.24
2019-04-07T22:46:17.555Z,101097.61
2019-04-07T22:48:41.798Z,101102.76
2019-04-07T22:51:13.782Z,101102.86
2019-04-07T22:53:45.549Z,101107.23
2019-04-07T22:56:18.102Z,101104.77
2019-04-07T22:58:52.004Z,101103.59
2019-04-07T23:01:23.126Z,101103.43
2019-04-07T23:03:54.779Z,101103.59
2019-04-07T23:06:26.630Z,101104.19
2019-04-07T23:08:57.634Z,101105.54
2019-04-07T23:11:29.970Z,101095.16
2019-04-07T23:14:01.125Z,101095.60
2019-04-07T23:16:36.003Z,101096.53
2019-04-07T23:19:07.566Z,101106.14
2019-04-07T23:21:39.705Z,101101.41
2019-04-07T23:24:11.480Z,101102.36
2019-04-07T23:26:42.622Z,101106.29
2019-04-07T23:29:22.167Z,101103.34
2019-04-07T23:31:57.633Z,101111.32
2019-04-07T23:34:36.670Z,101108.73
2019-04-07T23:37:12.359Z,101109.21
2019-04-07T23:39:44.137Z,101105.38
2019-04-07T23:42:15.743Z,101097.09
2019-04-07T23:44:58.656Z,101095.49
2019-04-07T23:47:37.111Z,101102.98
2019-04-07T23:50:09.141Z,101099.15
2019-04-07T23:52:41.151Z,101101.41
2019-04-07T23:55:12.912Z,101099.27
2019-04-07T23:57:44.982Z,101094.98
